sensor_id;sensor_type;location;lat;lon;timestamp;P1;durP1;ratioP1;P2;durP2;ratioP2
2674;SDS011;1347;42.122;24.746;2022-10-17T00:02:15;28.37;;;24.53;;
2674;SDS011;1347;42.122;24.746;2022-10-17T00:04:42;29.33;;;23.93;;
2674;SDS011;1347;42.122;24.746;2022-10-17T00:07:09;30.80;;;24.93;;
2674;SDS011;1347;42.122;24.746;2022-10-17T00:09:36;32.80;;;25.30;;
2674;SDS011;1347;42.122;24.746;2022-10-17T00:12:04;30.67;;;26.03;;
2674;SDS011;1347;42.122;24.746;2022-10-17T00:14:31;29.80;;;22.20;;
2674;SDS011;1347;42.122;24.746;2022-10-17T00:16:58;25.90;;;22.07;;
2674;SDS011;1347;42.122;24.746;2022-10-17T00:19:25;27.93;;;22.93;;
2674;SDS011;1347;42.122;24.746;2022-10-17T00:21:52;26.13;;;21.00;;
2674;SDS011;1347;42.122;24.746;2022-10-17T00:24:19;27.17;;;21.30;;
2674;SDS011;1347;42.122;24.746;2022-10-17T00:26:46;25.57;;;21.77;;
2674;SDS011;1347;42.122;24.746;2022-10-17T00:29:14;22.50;;;20.10;;
2674;SDS011;1347;42.122;24.746;2022-10-17T00:31:41;24.20;;;21.70;;
2674;SDS011;1347;42.122;24.746;2022-10-17T00:34:08;28.60;;;21.30;;
2674;SDS011;1347;42.122;24.746;2022-10-17T00:36:35;23.87;;;20.37;;
2674;SDS011;1347;42.122;24.746;2022-10-17T00:39:02;23.37;;;21.00;;
2674;SDS011;1347;42.122;24.746;2022-10-17T00:41:30;31.13;;;21.97;;
2674;SDS011;1347;42.122;24.746;2022-10-17T00:43:59;24.97;;;21.43;;
2674;SDS011;1347;42.122;24.746;2022-10-17T00:46:29;27.77;;;21.10;;
2674;SDS011;1347;42.122;24.746;2022-10-17T00:48:58;25.60;;;21.43;;
2674;SDS011;1347;42.122;24.746;2022-10-17T00:51:29;24.20;;;21.60;;
2674;SDS011;1347;42.122;24.746;2022-10-17T00:54:03;23.37;;;21.00;;
2674;SDS011;1347;42.122;24.746;2022-10-17T00:56:30;23.10;;;20.13;;
2674;SDS011;1347;42.122;24.746;2022-10-17T00:58:58;28.17;;;21.50;;
2674;SDS011;1347;42.122;24.746;2022-10-17T01:01:25;26.73;;;21.87;;
2674;SDS011;1347;42.122;24.746;2022-10-17T01:03:53;27.80;;;21.53;;
2674;SDS011;1347;42.122;24.746;2022-10-17T01:06:20;24.60;;;21.73;;
2674;SDS011;1347;42.122;24.746;2022-10-17T01:08:47;28.70;;;22.00;;
2674;SDS011;1347;42.122;24.746;2022-10-17T01:11:19;24.60;;;20.07;;
2674;SDS011;1347;42.122;24.746;2022-10-17T01:13:55;24.80;;;21.63;;
2674;SDS011;1347;42.122;24.746;2022-10-17T01:16:28;21.70;;;18.90;;
2674;SDS011;1347;42.122;24.746;2022-10-17T01:19:07;23.10;;;20.60;;
2674;SDS011;1347;42.122;24.746;2022-10-17T01:21:52;24.80;;;18.43;;
2674;SDS011;1347;42.122;24.746;2022-10-17T01:33:16;28.67;;;19.20;;
2674;SDS011;1347;42.122;24.746;2022-10-17T01:35:51;21.57;;;17.67;;
2674;SDS011;1347;42.122;24.746;2022-10-17T01:38:24;21.17;;;18.87;;
2674;SDS011;1347;42.122;24.746;2022-10-17T01:40:59;21.03;;;18.67;;
2674;SDS011;1347;42.122;24.746;2022-10-17T01:43:30;22.00;;;17.90;;
2674;SDS011;1347;42.122;24.746;2022-10-17T01:46:02;19.20;;;17.20;;
2674;SDS011;1347;42.122;24.746;2022-10-17T01:48:34;22.60;;;18.43;;
2674;SDS011;1347;42.122;24.746;2022-10-17T01:51:05;21.90;;;17.80;;
2674;SDS011;1347;42.122;24.746;2022-10-17T01:53:36;27.83;;;18.70;;
2674;SDS011;1347;42.122;24.746;2022-10-17T01:56:08;26.27;;;18.97;;
2674;SDS011;1347;42.122;24.746;2022-10-17T01:58:40;21.00;;;18.63;;
2674;SDS011;1347;42.122;24.746;2022-10-17T02:01:13;22.93;;;18.50;;
2674;SDS011;1347;42.122;24.746;2022-10-17T02:03:41;20.20;;;18.10;;
2674;SDS011;1347;42.122;24.746;2022-10-17T02:06:10;23.57;;;17.83;;
2674;SDS011;1347;42.122;24.746;2022-10-17T02:08:41;25.47;;;18.67;;
2674;SDS011;1347;42.122;24.746;2022-10-17T02:11:10;21.50;;;18.13;;
2674;SDS011;1347;42.122;24.746;2022-10-17T02:13:44;25.57;;;18.93;;
2674;SDS011;1347;42.122;24.746;2022-10-17T02:16:29;21.60;;;18.60;;
2674;SDS011;1347;42.122;24.746;2022-10-17T02:19:04;23.83;;;18.60;;
2674;SDS011;1347;42.122;24.746;2022-10-17T02:21:43;25.07;;;19.67;;
2674;SDS011;1347;42.122;24.746;2022-10-17T02:24:16;22.17;;;17.83;;
2674;SDS011;1347;42.122;24.746;2022-10-17T02:26:51;21.53;;;17.13;;
2674;SDS011;1347;42.122;24.746;2022-10-17T02:29:22;24.13;;;18.13;;
2674;SDS011;1347;42.122;24.746;2022-10-17T02:31:56;21.27;;;17.87;;
2674;SDS011;1347;42.122;24.746;2022-10-17T02:34:28;21.73;;;18.73;;
2674;SDS011;1347;42.122;24.746;2022-10-17T02:36:59;20.37;;;18.20;;
2674;SDS011;1347;42.122;24.746;2022-10-17T02:39:29;24.77;;;18.97;;
2674;SDS011;1347;42.122;24.746;2022-10-17T02:41:59;31.30;;;18.27;;
2674;SDS011;1347;42.122;24.746;2022-10-17T02:44:29;19.73;;;17.40;;
2674;SDS011;1347;42.122;24.746;2022-10-17T02:47:00;22.10;;;16.80;;
2674;SDS011;1347;42.122;24.746;2022-10-17T02:49:35;17.47;;;15.60;;
2674;SDS011;1347;42.122;24.746;2022-10-17T02:52:07;18.73;;;16.77;;
2674;SDS011;1347;42.122;24.746;2022-10-17T02:54:40;18.60;;;16.23;;
2674;SDS011;1347;42.122;24.746;2022-10-17T02:57:13;20.47;;;16.40;;
2674;SDS011;1347;42.122;24.746;2022-10-17T02:59:44;18.90;;;16.43;;
2674;SDS011;1347;42.122;24.746;2022-10-17T03:02:13;18.03;;;15.97;;
2674;SDS011;1347;42.122;24.746;2022-10-17T03:04:41;18.63;;;15.53;;
2674;SDS011;1347;42.122;24.746;2022-10-17T03:07:09;16.23;;;14.50;;
2674;SDS011;1347;42.122;24.746;2022-10-17T03:09:36;20.40;;;14.87;;
2674;SDS011;1347;42.122;24.746;2022-10-17T03:12:03;19.03;;;15.23;;
2674;SDS011;1347;42.122;24.746;2022-10-17T03:14:30;19.43;;;13.97;;
2674;SDS011;1347;42.122;24.746;2022-10-17T03:16:57;16.47;;;14.30;;
2674;SDS011;1347;42.122;24.746;2022-10-17T03:19:25;16.80;;;15.10;;
2674;SDS011;1347;42.122;24.746;2022-10-17T03:21:52;15.23;;;13.67;;
2674;SDS011;1347;42.122;24.746;2022-10-17T03:24:19;16.17;;;13.40;;
2674;SDS011;1347;42.122;24.746;2022-10-17T03:26:46;17.60;;;15.33;;
2674;SDS011;1347;42.122;24.746;2022-10-17T03:29:13;18.50;;;16.20;;
2674;SDS011;1347;42.122;24.746;2022-10-17T03:31:40;17.37;;;14.80;;
2674;SDS011;1347;42.122;24.746;2022-10-17T03:34:07;16.60;;;14.80;;
2674;SDS011;1347;42.122;24.746;2022-10-17T03:36:35;16.10;;;13.20;;
2674;SDS011;1347;42.122;24.746;2022-10-17T03:39:02;17.07;;;13.90;;
2674;SDS011;1347;42.122;24.746;2022-10-17T03:41:29;15.90;;;13.70;;
2674;SDS011;1347;42.122;24.746;2022-10-17T03:43:56;16.97;;;14.03;;
2674;SDS011;1347;42.122;24.746;2022-10-17T03:46:23;14.03;;;12.60;;
2674;SDS011;1347;42.122;24.746;2022-10-17T03:48:49;15.70;;;14.00;;
2674;SDS011;1347;42.122;24.746;2022-10-17T03:51:16;15.80;;;13.37;;
2674;SDS011;1347;42.122;24.746;2022-10-17T03:53:45;16.97;;;15.17;;
2674;SDS011;1347;42.122;24.746;2022-10-17T03:56:12;15.93;;;13.67;;
2674;SDS011;1347;42.122;24.746;2022-10-17T03:58:40;19.07;;;14.13;;
2674;SDS011;1347;42.122;24.746;2022-10-17T04:01:09;18.90;;;13.90;;
2674;SDS011;1347;42.122;24.746;2022-10-17T04:03:37;17.63;;;14.37;;
2674;SDS011;1347;42.122;24.746;2022-10-17T04:06:04;16.97;;;14.43;;
2674;SDS011;1347;42.122;24.746;2022-10-17T04:08:32;16.17;;;13.33;;
2674;SDS011;1347;42.122;24.746;2022-10-17T04:11:02;16.97;;;15.17;;
2674;SDS011;1347;42.122;24.746;2022-10-17T04:13:31;23.17;;;14.53;;
2674;SDS011;1347;42.122;24.746;2022-10-17T04:15:59;17.67;;;14.87;;
2674;SDS011;1347;42.122;24.746;2022-10-17T04:18:27;17.67;;;15.00;;
2674;SDS011;1347;42.122;24.746;2022-10-17T04:20:54;16.93;;;15.17;;
2674;SDS011;1347;42.122;24.746;2022-10-17T04:23:21;20.03;;;14.90;;
2674;SDS011;1347;42.122;24.746;2022-10-17T04:25:48;21.50;;;15.13;;
2674;SDS011;1347;42.122;24.746;2022-10-17T04:28:16;19.53;;;15.73;;
2674;SDS011;1347;42.122;24.746;2022-10-17T04:30:43;29.37;;;19.67;;
2674;SDS011;1347;42.122;24.746;2022-10-17T04:33:16;22.20;;;17.27;;
2674;SDS011;1347;42.122;24.746;2022-10-17T04:35:43;25.40;;;16.80;;
2674;SDS011;1347;42.122;24.746;2022-10-17T04:38:10;22.10;;;16.97;;
2674;SDS011;1347;42.122;24.746;2022-10-17T04:40:36;24.73;;;17.70;;
2674;SDS011;1347;42.122;24.746;2022-10-17T04:43:03;21.10;;;15.13;;
2674;SDS011;1347;42.122;24.746;2022-10-17T04:45:32;21.53;;;16.37;;
2674;SDS011;1347;42.122;24.746;2022-10-17T04:47:58;25.03;;;16.67;;
2674;SDS011;1347;42.122;24.746;2022-10-17T04:50:25;24.20;;;15.53;;
2674;SDS011;1347;42.122;24.746;2022-10-17T04:52:52;22.63;;;14.70;;
2674;SDS011;1347;42.122;24.746;2022-10-17T04:55:19;19.03;;;15.00;;
2674;SDS011;1347;42.122;24.746;2022-10-17T04:57:46;18.53;;;15.53;;
2674;SDS011;1347;42.122;24.746;2022-10-17T05:00:13;22.83;;;15.33;;
2674;SDS011;1347;42.122;24.746;2022-10-17T05:02:42;16.33;;;14.33;;
2674;SDS011;1347;42.122;24.746;2022-10-17T05:05:08;20.13;;;13.73;;
2674;SDS011;1347;42.122;24.746;2022-10-17T05:07:38;18.80;;;14.27;;
2674;SDS011;1347;42.122;24.746;2022-10-17T05:10:06;22.43;;;16.57;;
2674;SDS011;1347;42.122;24.746;2022-10-17T05:12:33;22.30;;;15.70;;
2674;SDS011;1347;42.122;24.746;2022-10-17T05:15:00;23.10;;;20.20;;
2674;SDS011;1347;42.122;24.746;2022-10-17T05:17:27;19.93;;;14.40;;
2674;SDS011;1347;42.122;24.746;2022-10-17T05:19:55;15.83;;;13.10;;
2674;SDS011;1347;42.122;24.746;2022-10-17T05:22:22;17.47;;;12.63;;
2674;SDS011;1347;42.122;24.746;2022-10-17T05:24:49;19.40;;;14.00;;
2674;SDS011;1347;42.122;24.746;2022-10-17T05:27:16;19.93;;;12.73;;
2674;SDS011;1347;42.122;24.746;2022-10-17T05:29:43;20.97;;;13.27;;
2674;SDS011;1347;42.122;24.746;2022-10-17T05:32:10;27.00;;;15.43;;
2674;SDS011;1347;42.122;24.746;2022-10-17T05:34:37;24.83;;;15.53;;
2674;SDS011;1347;42.122;24.746;2022-10-17T05:37:05;18.10;;;16.00;;
2674;SDS011;1347;42.122;24.746;2022-10-17T05:39:32;23.77;;;14.73;;
2674;SDS011;1347;42.122;24.746;2022-10-17T05:41:59;19.60;;;15.30;;
2674;SDS011;1347;42.122;24.746;2022-10-17T05:44:26;21.23;;;16.37;;
2674;SDS011;1347;42.122;24.746;2022-10-17T05:46:53;18.67;;;15.67;;
2674;SDS011;1347;42.122;24.746;2022-10-17T05:49:20;21.33;;;14.87;;
2674;SDS011;1347;42.122;24.746;2022-10-17T05:51:47;13.97;;;12.57;;
2674;SDS011;1347;42.122;24.746;2022-10-17T05:54:15;15.00;;;12.70;;
2674;SDS011;1347;42.122;24.746;2022-10-17T05:56:42;14.03;;;12.00;;
2674;SDS011;1347;42.122;24.746;2022-10-17T05:59:09;17.40;;;11.60;;
2674;SDS011;1347;42.122;24.746;2022-10-17T06:01:36;14.77;;;13.27;;
2674;SDS011;1347;42.122;24.746;2022-10-17T06:04:03;15.50;;;13.77;;
2674;SDS011;1347;42.122;24.746;2022-10-17T06:06:30;12.03;;;10.67;;
2674;SDS011;1347;42.122;24.746;2022-10-17T06:08:57;17.00;;;10.60;;
2674;SDS011;1347;42.122;24.746;2022-10-17T06:11:25;17.67;;;11.70;;
2674;SDS011;1347;42.122;24.746;2022-10-17T06:13:52;16.73;;;12.47;;
2674;SDS011;1347;42.122;24.746;2022-10-17T06:16:20;18.37;;;11.90;;
2674;SDS011;1347;42.122;24.746;2022-10-17T06:18:47;16.27;;;11.80;;
2674;SDS011;1347;42.122;24.746;2022-10-17T06:21:14;17.73;;;12.90;;
2674;SDS011;1347;42.122;24.746;2022-10-17T06:23:45;16.10;;;14.40;;
2674;SDS011;1347;42.122;24.746;2022-10-17T06:26:12;15.47;;;12.70;;
2674;SDS011;1347;42.122;24.746;2022-10-17T06:28:41;17.80;;;12.57;;
2674;SDS011;1347;42.122;24.746;2022-10-17T06:31:09;19.37;;;13.70;;
2674;SDS011;1347;42.122;24.746;2022-10-17T06:33:37;14.80;;;13.20;;
2674;SDS011;1347;42.122;24.746;2022-10-17T06:36:05;14.77;;;13.27;;
2674;SDS011;1347;42.122;24.746;2022-10-17T06:38:35;18.33;;;13.43;;
2674;SDS011;1347;42.122;24.746;2022-10-17T06:41:02;12.80;;;11.50;;
2674;SDS011;1347;42.122;24.746;2022-10-17T06:43:32;14.00;;;12.47;;
2674;SDS011;1347;42.122;24.746;2022-10-17T06:46:00;13.60;;;12.07;;
2674;SDS011;1347;42.122;24.746;2022-10-17T06:48:27;16.83;;;12.57;;
2674;SDS011;1347;42.122;24.746;2022-10-17T06:50:57;14.20;;;12.73;;
2674;SDS011;1347;42.122;24.746;2022-10-17T06:53:25;17.10;;;15.30;;
2674;SDS011;1347;42.122;24.746;2022-10-17T06:55:53;13.53;;;12.20;;
2674;SDS011;1347;42.122;24.746;2022-10-17T06:58:25;14.27;;;12.87;;
2674;SDS011;1347;42.122;24.746;2022-10-17T07:00:52;14.00;;;12.67;;
2674;SDS011;1347;42.122;24.746;2022-10-17T07:03:25;16.27;;;13.30;;
2674;SDS011;1347;42.122;24.746;2022-10-17T07:05:52;13.07;;;11.83;;
2674;SDS011;1347;42.122;24.746;2022-10-17T07:08:19;14.53;;;13.23;;
2674;SDS011;1347;42.122;24.746;2022-10-17T07:10:47;22.87;;;13.03;;
2674;SDS011;1347;42.122;24.746;2022-10-17T07:13:14;14.27;;;11.73;;
2674;SDS011;1347;42.122;24.746;2022-10-17T07:15:41;12.97;;;11.67;;
2674;SDS011;1347;42.122;24.746;2022-10-17T07:18:08;13.07;;;11.60;;
2674;SDS011;1347;42.122;24.746;2022-10-17T07:20:37;13.37;;;12.03;;
2674;SDS011;1347;42.122;24.746;2022-10-17T07:23:04;13.30;;;12.20;;
2674;SDS011;1347;42.122;24.746;2022-10-17T07:25:31;13.83;;;12.70;;
2674;SDS011;1347;42.122;24.746;2022-10-17T07:27:58;14.03;;;12.60;;
2674;SDS011;1347;42.122;24.746;2022-10-17T07:30:26;14.83;;;12.17;;
2674;SDS011;1347;42.122;24.746;2022-10-17T07:32:53;14.73;;;12.13;;
2674;SDS011;1347;42.122;24.746;2022-10-17T07:35:20;11.90;;;10.70;;
2674;SDS011;1347;42.122;24.746;2022-10-17T07:37:48;12.67;;;11.60;;
2674;SDS011;1347;42.122;24.746;2022-10-17T07:40:15;11.17;;;10.17;;
2674;SDS011;1347;42.122;24.746;2022-10-17T07:42:42;11.37;;;10.20;;
2674;SDS011;1347;42.122;24.746;2022-10-17T07:45:09;11.30;;;10.20;;
2674;SDS011;1347;42.122;24.746;2022-10-17T07:47:36;11.90;;;10.70;;
2674;SDS011;1347;42.122;24.746;2022-10-17T07:50:03;13.97;;;11.73;;
2674;SDS011;1347;42.122;24.746;2022-10-17T07:52:31;12.47;;;11.23;;
2674;SDS011;1347;42.122;24.746;2022-10-17T07:54:59;12.40;;;11.20;;
2674;SDS011;1347;42.122;24.746;2022-10-17T07:57:26;12.33;;;11.13;;
2674;SDS011;1347;42.122;24.746;2022-10-17T07:59:53;14.23;;;11.77;;
2674;SDS011;1347;42.122;24.746;2022-10-17T08:02:20;11.87;;;10.87;;
2674;SDS011;1347;42.122;24.746;2022-10-17T08:04:49;13.20;;;10.23;;
2674;SDS011;1347;42.122;24.746;2022-10-17T08:07:16;13.00;;;10.53;;
2674;SDS011;1347;42.122;24.746;2022-10-17T08:09:44;11.07;;;10.07;;
2674;SDS011;1347;42.122;24.746;2022-10-17T08:12:13;12.23;;;11.23;;
2674;SDS011;1347;42.122;24.746;2022-10-17T08:14:40;13.80;;;12.07;;
2674;SDS011;1347;42.122;24.746;2022-10-17T08:17:07;11.37;;;10.57;;
2674;SDS011;1347;42.122;24.746;2022-10-17T08:19:36;11.40;;;10.37;;
2674;SDS011;1347;42.122;24.746;2022-10-17T08:22:03;10.63;;;9.83;;
2674;SDS011;1347;42.122;24.746;2022-10-17T08:24:30;11.10;;;10.00;;
2674;SDS011;1347;42.122;24.746;2022-10-17T08:26:57;11.27;;;10.37;;
2674;SDS011;1347;42.122;24.746;2022-10-17T08:29:26;9.83;;;8.80;;
2674;SDS011;1347;42.122;24.746;2022-10-17T08:31:53;13.13;;;10.27;;
2674;SDS011;1347;42.122;24.746;2022-10-17T08:34:20;15.23;;;9.63;;
2674;SDS011;1347;42.122;24.746;2022-10-17T08:36:47;11.60;;;10.60;;
2674;SDS011;1347;42.122;24.746;2022-10-17T08:39:14;10.23;;;9.53;;
2674;SDS011;1347;42.122;24.746;2022-10-17T08:41:50;18.80;;;16.90;;
2674;SDS011;1347;42.122;24.746;2022-10-17T08:44:30;13.60;;;12.17;;
2674;SDS011;1347;42.122;24.746;2022-10-17T08:47:07;14.47;;;12.33;;
2674;SDS011;1347;42.122;24.746;2022-10-17T08:49:39;12.60;;;11.53;;
2674;SDS011;1347;42.122;24.746;2022-10-17T08:52:13;14.43;;;13.03;;
2674;SDS011;1347;42.122;24.746;2022-10-17T08:54:44;13.37;;;11.97;;
2674;SDS011;1347;42.122;24.746;2022-10-17T08:57:13;15.30;;;10.97;;
2674;SDS011;1347;42.122;24.746;2022-10-17T08:59:43;10.07;;;9.17;;
2674;SDS011;1347;42.122;24.746;2022-10-17T09:02:29;10.90;;;9.73;;
2674;SDS011;1347;42.122;24.746;2022-10-17T09:05:24;11.47;;;10.13;;
2674;SDS011;1347;42.122;24.746;2022-10-17T09:07:59;9.80;;;8.80;;
2674;SDS011;1347;42.122;24.746;2022-10-17T09:10:34;9.13;;;8.00;;
2674;SDS011;1347;42.122;24.746;2022-10-17T09:13:12;10.27;;;9.17;;
2674;SDS011;1347;42.122;24.746;2022-10-17T09:15:53;10.47;;;9.63;;
2674;SDS011;1347;42.122;24.746;2022-10-17T09:18:32;11.60;;;9.53;;
2674;SDS011;1347;42.122;24.746;2022-10-17T09:21:04;9.20;;;8.40;;
2674;SDS011;1347;42.122;24.746;2022-10-17T09:23:42;14.50;;;8.90;;
2674;SDS011;1347;42.122;24.746;2022-10-17T09:26:11;10.43;;;9.33;;
2674;SDS011;1347;42.122;24.746;2022-10-17T09:28:40;11.73;;;10.50;;
2674;SDS011;1347;42.122;24.746;2022-10-17T09:31:11;10.90;;;9.30;;
2674;SDS011;1347;42.122;24.746;2022-10-17T09:33:45;9.60;;;8.60;;
2674;SDS011;1347;42.122;24.746;2022-10-17T09:36:15;11.73;;;9.10;;
2674;SDS011;1347;42.122;24.746;2022-10-17T09:38:46;11.77;;;8.00;;
2674;SDS011;1347;42.122;24.746;2022-10-17T09:41:15;9.17;;;8.23;;
2674;SDS011;1347;42.122;24.746;2022-10-17T09:43:44;8.87;;;7.77;;
2674;SDS011;1347;42.122;24.746;2022-10-17T09:46:15;9.63;;;7.80;;
2674;SDS011;1347;42.122;24.746;2022-10-17T09:48:49;9.83;;;7.90;;
2674;SDS011;1347;42.122;24.746;2022-10-17T09:51:19;8.33;;;6.53;;
2674;SDS011;1347;42.122;24.746;2022-10-17T09:53:47;7.73;;;7.07;;
2674;SDS011;1347;42.122;24.746;2022-10-17T09:56:17;7.00;;;6.30;;
2674;SDS011;1347;42.122;24.746;2022-10-17T09:58:45;10.93;;;7.70;;
2674;SDS011;1347;42.122;24.746;2022-10-17T10:01:16;7.33;;;6.63;;
2674;SDS011;1347;42.122;24.746;2022-10-17T10:03:45;6.43;;;5.83;;
2674;SDS011;1347;42.122;24.746;2022-10-17T10:06:13;6.57;;;5.97;;
2674;SDS011;1347;42.122;24.746;2022-10-17T10:08:48;7.23;;;5.30;;
2674;SDS011;1347;42.122;24.746;2022-10-17T10:11:17;6.53;;;5.07;;
2674;SDS011;1347;42.122;24.746;2022-10-17T10:13:47;5.13;;;4.23;;
2674;SDS011;1347;42.122;24.746;2022-10-17T10:16:17;6.67;;;4.50;;
2674;SDS011;1347;42.122;24.746;2022-10-17T10:18:48;6.00;;;4.80;;
2674;SDS011;1347;42.122;24.746;2022-10-17T10:21:16;6.77;;;5.00;;
2674;SDS011;1347;42.122;24.746;2022-10-17T10:23:45;5.10;;;4.50;;
2674;SDS011;1347;42.122;24.746;2022-10-17T10:26:31;5.50;;;4.70;;
2674;SDS011;1347;42.122;24.746;2022-10-17T10:29:04;6.10;;;4.83;;
2674;SDS011;1347;42.122;24.746;2022-10-17T10:31:45;5.37;;;4.43;;
2674;SDS011;1347;42.122;24.746;2022-10-17T10:34:16;4.80;;;4.40;;
2674;SDS011;1347;42.122;24.746;2022-10-17T10:36:48;5.33;;;4.70;;
2674;SDS011;1347;42.122;24.746;2022-10-17T10:39:27;9.53;;;4.93;;
2674;SDS011;1347;42.122;24.746;2022-10-17T10:41:59;5.30;;;4.10;;
2674;SDS011;1347;42.122;24.746;2022-10-17T10:44:28;6.63;;;4.37;;
2674;SDS011;1347;42.122;24.746;2022-10-17T10:47:13;4.93;;;4.40;;
2674;SDS011;1347;42.122;24.746;2022-10-17T10:49:44;14.07;;;4.87;;
2674;SDS011;1347;42.122;24.746;2022-10-17T10:52:14;6.47;;;4.43;;
2674;SDS011;1347;42.122;24.746;2022-10-17T10:54:52;6.10;;;4.77;;
2674;SDS011;1347;42.122;24.746;2022-10-17T10:57:24;4.40;;;4.00;;
2674;SDS011;1347;42.122;24.746;2022-10-17T10:59:58;6.70;;;4.30;;
2674;SDS011;1347;42.122;24.746;2022-10-17T11:02:32;5.27;;;4.23;;
2674;SDS011;1347;42.122;24.746;2022-10-17T11:05:09;6.97;;;4.40;;
2674;SDS011;1347;42.122;24.746;2022-10-17T11:07:39;9.13;;;4.70;;
2674;SDS011;1347;42.122;24.746;2022-10-17T11:10:13;4.57;;;4.10;;
2674;SDS011;1347;42.122;24.746;2022-10-17T11:12:44;7.20;;;5.10;;
2674;SDS011;1347;42.122;24.746;2022-10-17T11:15:18;7.70;;;4.57;;
2674;SDS011;1347;42.122;24.746;2022-10-17T11:17:54;13.10;;;6.00;;
2674;SDS011;1347;42.122;24.746;2022-10-17T11:20:26;5.63;;;4.37;;
2674;SDS011;1347;42.122;24.746;2022-10-17T11:23:00;5.33;;;4.10;;
2674;SDS011;1347;42.122;24.746;2022-10-17T11:25:35;4.70;;;4.20;;
2674;SDS011;1347;42.122;24.746;2022-10-17T11:28:09;5.43;;;3.90;;
2674;SDS011;1347;42.122;24.746;2022-10-17T11:30:41;5.33;;;3.80;;
2674;SDS011;1347;42.122;24.746;2022-10-17T11:33:19;4.07;;;3.67;;
2674;SDS011;1347;42.122;24.746;2022-10-17T11:35:53;8.13;;;4.10;;
2674;SDS011;1347;42.122;24.746;2022-10-17T11:38:26;6.50;;;4.40;;
2674;SDS011;1347;42.122;24.746;2022-10-17T11:41:09;3.83;;;3.50;;
2674;SDS011;1347;42.122;24.746;2022-10-17T11:43:41;6.00;;;3.50;;
2674;SDS011;1347;42.122;24.746;2022-10-17T11:46:16;6.00;;;4.50;;
2674;SDS011;1347;42.122;24.746;2022-10-17T11:48:50;4.50;;;4.10;;
2674;SDS011;1347;42.122;24.746;2022-10-17T11:51:23;5.23;;;4.73;;
2674;SDS011;1347;42.122;24.746;2022-10-17T11:53:52;6.70;;;5.23;;
2674;SDS011;1347;42.122;24.746;2022-10-17T11:56:25;6.47;;;5.77;;
2674;SDS011;1347;42.122;24.746;2022-10-17T11:59:01;4.30;;;3.83;;
2674;SDS011;1347;42.122;24.746;2022-10-17T12:01:39;6.63;;;4.70;;
2674;SDS011;1347;42.122;24.746;2022-10-17T12:04:18;9.27;;;4.93;;
2674;SDS011;1347;42.122;24.746;2022-10-17T12:07:00;5.77;;;4.30;;
2674;SDS011;1347;42.122;24.746;2022-10-17T12:09:37;8.17;;;4.30;;
2674;SDS011;1347;42.122;24.746;2022-10-17T12:12:22;4.77;;;3.60;;
2674;SDS011;1347;42.122;24.746;2022-10-17T12:14:51;10.03;;;5.23;;
2674;SDS011;1347;42.122;24.746;2022-10-17T12:17:27;4.13;;;3.70;;
2674;SDS011;1347;42.122;24.746;2022-10-17T12:22:55;5.43;;;4.57;;
2674;SDS011;1347;42.122;24.746;2022-10-17T12:25:25;5.63;;;4.40;;
2674;SDS011;1347;42.122;24.746;2022-10-17T12:30:51;9.60;;;4.00;;
2674;SDS011;1347;42.122;24.746;2022-10-17T12:33:23;5.83;;;4.87;;
2674;SDS011;1347;42.122;24.746;2022-10-17T12:41:55;5.70;;;4.37;;
2674;SDS011;1347;42.122;24.746;2022-10-17T12:44:34;6.23;;;4.00;;
2674;SDS011;1347;42.122;24.746;2022-10-17T12:49:53;4.53;;;4.13;;
2674;SDS011;1347;42.122;24.746;2022-10-17T12:52:24;10.13;;;4.13;;
2674;SDS011;1347;42.122;24.746;2022-10-17T12:54:57;4.90;;;4.10;;
2674;SDS011;1347;42.122;24.746;2022-10-17T12:57:33;4.23;;;3.83;;
2674;SDS011;1347;42.122;24.746;2022-10-17T13:00:12;4.30;;;3.37;;
2674;SDS011;1347;42.122;24.746;2022-10-17T13:02:42;5.33;;;3.30;;
2674;SDS011;1347;42.122;24.746;2022-10-17T13:05:12;5.63;;;3.90;;
2674;SDS011;1347;42.122;24.746;2022-10-17T13:07:43;4.60;;;3.77;;
2674;SDS011;1347;42.122;24.746;2022-10-17T13:10:21;4.80;;;3.40;;
2674;SDS011;1347;42.122;24.746;2022-10-17T13:12:52;3.50;;;3.20;;
2674;SDS011;1347;42.122;24.746;2022-10-17T13:15:26;7.70;;;4.33;;
2674;SDS011;1347;42.122;24.746;2022-10-17T13:17:58;4.77;;;3.80;;
2674;SDS011;1347;42.122;24.746;2022-10-17T13:20:26;5.80;;;4.00;;
2674;SDS011;1347;42.122;24.746;2022-10-17T13:22:55;4.47;;;3.57;;
2674;SDS011;1347;42.122;24.746;2022-10-17T13:25:22;4.80;;;4.30;;
2674;SDS011;1347;42.122;24.746;2022-10-17T13:28:02;7.70;;;3.73;;
2674;SDS011;1347;42.122;24.746;2022-10-17T13:30:32;8.43;;;4.90;;
2674;SDS011;1347;42.122;24.746;2022-10-17T13:33:00;5.23;;;4.30;;
2674;SDS011;1347;42.122;24.746;2022-10-17T13:35:29;5.70;;;3.87;;
2674;SDS011;1347;42.122;24.746;2022-10-17T13:37:59;5.60;;;4.70;;
2674;SDS011;1347;42.122;24.746;2022-10-17T13:40:31;8.50;;;5.87;;
2674;SDS011;1347;42.122;24.746;2022-10-17T13:43:10;6.77;;;5.87;;
2674;SDS011;1347;42.122;24.746;2022-10-17T13:45:43;5.10;;;3.80;;
2674;SDS011;1347;42.122;24.746;2022-10-17T13:48:16;5.23;;;4.70;;
2674;SDS011;1347;42.122;24.746;2022-10-17T13:50:46;4.73;;;3.97;;
2674;SDS011;1347;42.122;24.746;2022-10-17T13:53:16;5.40;;;3.90;;
2674;SDS011;1347;42.122;24.746;2022-10-17T13:55:49;4.23;;;3.43;;
2674;SDS011;1347;42.122;24.746;2022-10-17T13:58:19;3.87;;;3.50;;
2674;SDS011;1347;42.122;24.746;2022-10-17T14:00:48;5.50;;;4.13;;
2674;SDS011;1347;42.122;24.746;2022-10-17T14:03:17;4.43;;;4.07;;
2674;SDS011;1347;42.122;24.746;2022-10-17T14:05:58;3.80;;;3.50;;
2674;SDS011;1347;42.122;24.746;2022-10-17T14:08:28;5.53;;;4.10;;
2674;SDS011;1347;42.122;24.746;2022-10-17T14:10:56;4.73;;;4.20;;
2674;SDS011;1347;42.122;24.746;2022-10-17T14:13:27;4.73;;;4.23;;
2674;SDS011;1347;42.122;24.746;2022-10-17T14:15:59;5.43;;;4.03;;
2674;SDS011;1347;42.122;24.746;2022-10-17T14:18:28;5.47;;;3.73;;
2674;SDS011;1347;42.122;24.746;2022-10-17T14:20:56;5.20;;;4.10;;
2674;SDS011;1347;42.122;24.746;2022-10-17T14:23:28;4.53;;;4.13;;
2674;SDS011;1347;42.122;24.746;2022-10-17T14:26:03;5.63;;;3.60;;
2674;SDS011;1347;42.122;24.746;2022-10-17T14:28:34;4.30;;;3.90;;
2674;SDS011;1347;42.122;24.746;2022-10-17T14:31:08;7.30;;;4.37;;
2674;SDS011;1347;42.122;24.746;2022-10-17T14:33:49;3.93;;;3.60;;
2674;SDS011;1347;42.122;24.746;2022-10-17T14:36:18;9.13;;;4.97;;
2674;SDS011;1347;42.122;24.746;2022-10-17T14:38:47;5.63;;;4.67;;
2674;SDS011;1347;42.122;24.746;2022-10-17T14:41:18;17.27;;;4.13;;
2674;SDS011;1347;42.122;24.746;2022-10-17T14:43:57;9.50;;;4.60;;
2674;SDS011;1347;42.122;24.746;2022-10-17T14:46:26;4.37;;;3.60;;
2674;SDS011;1347;42.122;24.746;2022-10-17T14:48:54;4.20;;;3.40;;
2674;SDS011;1347;42.122;24.746;2022-10-17T14:51:24;4.87;;;3.50;;
2674;SDS011;1347;42.122;24.746;2022-10-17T14:54:01;4.70;;;3.57;;
2674;SDS011;1347;42.122;24.746;2022-10-17T14:56:34;8.30;;;4.30;;
2674;SDS011;1347;42.122;24.746;2022-10-17T14:59:06;5.10;;;4.60;;
2674;SDS011;1347;42.122;24.746;2022-10-17T15:01:34;10.53;;;5.17;;
2674;SDS011;1347;42.122;24.746;2022-10-17T15:04:01;11.43;;;6.40;;
2674;SDS011;1347;42.122;24.746;2022-10-17T15:06:28;8.90;;;4.87;;
2674;SDS011;1347;42.122;24.746;2022-10-17T15:08:57;5.57;;;4.70;;
2674;SDS011;1347;42.122;24.746;2022-10-17T15:11:24;4.63;;;4.00;;
2674;SDS011;1347;42.122;24.746;2022-10-17T15:13:51;10.30;;;3.87;;
2674;SDS011;1347;42.122;24.746;2022-10-17T15:16:20;5.50;;;4.40;;
2674;SDS011;1347;42.122;24.746;2022-10-17T15:18:48;10.17;;;5.10;;
2674;SDS011;1347;42.122;24.746;2022-10-17T15:21:16;7.07;;;4.93;;
2674;SDS011;1347;42.122;24.746;2022-10-17T15:23:45;7.60;;;4.63;;
2674;SDS011;1347;42.122;24.746;2022-10-17T15:26:13;6.50;;;4.33;;
2674;SDS011;1347;42.122;24.746;2022-10-17T15:28:42;9.93;;;5.17;;